Skip Navigation Links
NOAA logo - Click to go to the NOAA homepage
NOAA's National Weather Service
Alaska Aviation Weather Unit
  NWS logo - Click to go to the NWS homepage
Left Navbar Graphic     21 AKDT = 05 GMT

   
NOAA is celebrating 200 years of science, service, and stewardship. Visit the NOAA 200th celebration Web site to learn more.
USA.gov is the U.S. Government's official Web portal to all Federal, state and local government Web resources and services.
Facebook
NWS on Facebook

Important Change Regarding the AAWU Web Presence

 

Over the last several months, the AAWU has been working to navigate its webpages to a nationally supported server. Security, as well as other needs, have necessitated the change.  In the process, we have made an effort to enhance the functionality of our website, as well as some of our products. As of June 27, 2017, aawu.arh.noaa.gov will be discontinued. The new AAWU web address is weather.gov/aawu. It is now live and will run in-parallel with the old site until it is discontinued. Please send any feedback or questions regarding the new webpages to nws.ar.aawu.webauthors@noaa.gov.  Thank you for your patience during this time of transition.
AAWU Home :: Display TAF Add Bookmark
SPECI PASK 242315Z AUTO 26011KT 10SM SCT027 BKN045 11/03 A3014 RMK AO2
     $=

METAR PASK 242356Z AUTO 25007KT 10SM BKN045 11/03 A3015 RMK AO2
 SLP206 T01060033 10111 20100 55001 $=

METAR PASK 250056Z AUTO 23009KT 10SM SCT043 11/03 A3014 RMK AO2 SLP203
     T01110033 $=

METAR PASK 250156Z AUTO 24009KT 10SM CLR 11/03 A3014 RMK AO2 SLP202
     T01110033 $=

METAR PASK 250256Z AUTO 22008KT 10SM FEW100 12/03 A3012 RMK AO2
 SLP198 T01170033 58008 $=

METAR PASK 250356Z AUTO 22007KT 9SM FEW110 12/04 A3011 RMK AO2 SLP193
     T01220039 $=

METAR PASK 250456Z AUTO 19006KT 10SM FEW100 12/04 A3010 RMK AO2 SLP189
     T01170039 $=


NOAA's National Weather Service
Alaska Aviation Weather Unit
6930 Sand Lake Road
Anchorage, AK 99502-1845
Disclaimer
Credits
Glossary
Privacy Policy
About Us
Career Opportunities
Contact AAWU Internet Services Site last modified: April, 17th 2012